createdAt,value
2018-08-19T00:02:26.025Z,97890.08
2018-08-19T00:05:10.335Z,97886.62
2018-08-19T00:07:40.108Z,97888.05
2018-08-19T00:10:09.915Z,97890.44
2018-08-19T00:12:43.931Z,97887.59
2018-08-19T00:15:14.323Z,97885.86
2018-08-19T00:17:44.370Z,97885.51
2018-08-19T00:20:14.903Z,97877.84
2018-08-19T00:22:44.786Z,97876.38
2018-08-19T00:25:24.138Z,97877.56
2018-08-19T00:27:54.028Z,97875.48
2018-08-19T00:30:23.916Z,97874.56
2018-08-19T00:32:53.617Z,97869.31
2018-08-19T00:35:23.585Z,97877.19
2018-08-19T00:37:53.250Z,97877.08
2018-08-19T00:40:23.812Z,97876.47
2018-08-19T00:42:53.535Z,97877.05
2018-08-19T00:45:23.642Z,97875.53
2018-08-19T00:47:53.362Z,97876.12
2018-08-19T00:50:24.389Z,97882.25
2018-08-19T00:52:54.793Z,97880.59
2018-08-19T00:55:25.206Z,97879.59
2018-08-19T00:58:01.218Z,97885.16
2018-08-19T01:00:31.251Z,97883.05
2018-08-19T01:03:00.965Z,97882.70
2018-08-19T01:05:30.952Z,97881.42
2018-08-19T01:08:01.022Z,97873.14
2018-08-19T01:10:30.889Z,97872.91
2018-08-19T01:13:00.651Z,97869.18
2018-08-19T01:15:30.534Z,97869.23
2018-08-19T01:18:00.247Z,97873.02
2018-08-19T01:20:30.172Z,97867.97
2018-08-19T01:22:59.872Z,97871.91
2018-08-19T01:25:29.782Z,97880.02
2018-08-19T01:27:59.637Z,97877.16
2018-08-19T01:30:29.618Z,97878.78
2018-08-19T01:32:59.215Z,97880.55
2018-08-19T01:35:33.095Z,97876.38
2018-08-19T01:38:02.785Z,97881.14
2018-08-19T01:40:32.473Z,97887.28
2018-08-19T01:43:02.269Z,97884.94
2018-08-19T01:45:32.244Z,97886.25
2018-08-19T01:48:01.891Z,97890.13
2018-08-19T01:50:31.662Z,97894.57
2018-08-19T01:53:01.333Z,97896.58
2018-08-19T01:55:32.499Z,97897.54
2018-08-19T01:58:02.191Z,97895.95
2018-08-19T02:00:32.079Z,97891.64
2018-08-19T02:03:06.078Z,97891.30
2018-08-19T02:05:35.882Z,97896.16
2018-08-19T02:08:05.951Z,97896.75
2018-08-19T02:10:36.408Z,97899.38
2018-08-19T02:13:06.179Z,97895.84
2018-08-19T02:15:36.029Z,97895.02
2018-08-19T02:18:06.503Z,97895.02
2018-08-19T02:20:39.187Z,97891.23
2018-08-19T02:23:11.162Z,97891.23
2018-08-19T02:25:43.448Z,97900.41
2018-08-19T02:28:13.873Z,97897.56
2018-08-19T02:31:02.800Z,97903.39
2018-08-19T02:33:35.094Z,97899.53
2018-08-19T02:36:07.774Z,97899.11
2018-08-19T02:38:38.787Z,97904.12
2018-08-19T02:41:08.574Z,97904.02
2018-08-19T02:43:47.625Z,97903.91
2018-08-19T02:46:17.610Z,97905.02
2018-08-19T02:48:50.839Z,97903.91
2018-08-19T02:51:21.525Z,97904.28
2018-08-19T02:53:52.415Z,97911.34
2018-08-19T02:56:22.266Z,97915.04
2018-08-19T02:58:51.969Z,97907.50
2018-08-19T03:01:21.735Z,97905.64
2018-08-19T03:03:51.532Z,97903.14
2018-08-19T03:06:21.322Z,97911.26
2018-08-19T03:08:56.113Z,97905.97
2018-08-19T03:11:26.185Z,97900.30
2018-08-19T03:13:56.210Z,97899.75
2018-08-19T03:16:26.014Z,97898.59
2018-08-19T03:18:55.901Z,97897.36
2018-08-19T03:21:25.723Z,97904.23
2018-08-19T03:23:55.416Z,97904.23
2018-08-19T03:26:25.196Z,97906.84
2018-08-19T03:28:55.088Z,97903.20
2018-08-19T03:31:24.896Z,97905.72
2018-08-19T03:33:54.711Z,97905.14
2018-08-19T03:36:24.560Z,97901.20
2018-08-19T03:38:55.977Z,97911.56
2018-08-19T03:41:25.902Z,97911.66
2018-08-19T03:43:59.462Z,97916.65
2018-08-19T03:46:31.302Z,97919.47
2018-08-19T03:49:01.070Z,97917.00
2018-08-19T03:51:30.801Z,97916.98
2018-08-19T03:54:00.490Z,97915.39
2018-08-19T03:56:30.249Z,97915.19
2018-08-19T03:59:00.980Z,97911.34
2018-08-19T04:01:41.549Z,97911.94
2018-08-19T04:04:12.372Z,97916.45
2018-08-19T04:06:42.085Z,97917.91
2018-08-19T04:09:11.851Z,97920.23
2018-08-19T04:11:41.553Z,97916.53
2018-08-19T04:14:26.333Z,97918.23
2018-08-19T04:16:58.805Z,97918.00
2018-08-19T04:19:29.342Z,97928.73
2018-08-19T04:22:01.556Z,97930.87
2018-08-19T04:24:31.954Z,97931.98
2018-08-19T04:27:07.294Z,97940.95
2018-08-19T04:29:38.194Z,97942.06
2018-08-19T04:32:17.055Z,97939.62
2018-08-19T04:34:50.241Z,97940.40
2018-08-19T04:37:20.821Z,97939.62
2018-08-19T04:39:50.681Z,97940.84
2018-08-19T04:42:20.610Z,97931.77
2018-08-19T04:44:50.542Z,97931.36
2018-08-19T04:47:32.262Z,97941.27
2018-08-19T04:50:03.174Z,97938.09
2018-08-19T04:52:38.863Z,97932.47
2018-08-19T04:55:22.370Z,97935.02
2018-08-19T04:57:52.055Z,97938.13
2018-08-19T05:00:22.022Z,97942.06
2018-08-19T05:02:51.616Z,97938.78
2018-08-19T05:05:21.375Z,97937.53
2018-08-19T05:07:50.961Z,97930.34
2018-08-19T05:10:20.885Z,97935.92
2018-08-19T05:12:50.776Z,97937.04
2018-08-19T05:15:20.641Z,97933.42
2018-08-19T05:17:50.236Z,97940.23
2018-08-19T05:20:20.478Z,97935.59
2018-08-19T05:22:50.158Z,97934.18
2018-08-19T05:25:20.161Z,97933.78
2018-08-19T05:27:57.837Z,97935.63
2018-08-19T05:30:27.957Z,97936.22
2018-08-19T05:33:02.037Z,97933.81
2018-08-19T05:35:33.545Z,97937.74
2018-08-19T05:38:04.197Z,97934.93
2018-08-19T05:40:33.837Z,97926.70
2018-08-19T05:43:03.561Z,97931.00
2018-08-19T05:45:34.757Z,97934.98
2018-08-19T05:48:12.878Z,97938.54
2018-08-19T05:50:42.677Z,97940.64
2018-08-19T05:53:12.258Z,97940.84
2018-08-19T05:55:42.230Z,97941.17
2018-08-19T05:58:11.960Z,97941.11
2018-08-19T06:00:46.898Z,97940.30
2018-08-19T06:03:17.399Z,97943.36
2018-08-19T06:05:48.133Z,97944.16
2018-08-19T06:08:18.119Z,97948.47
2018-08-19T06:10:47.985Z,97945.70
2018-08-19T06:13:17.717Z,97941.98
2018-08-19T06:15:47.643Z,97936.83
2018-08-19T06:18:17.485Z,97929.63
2018-08-19T06:20:48.718Z,97931.62
2018-08-19T06:23:18.659Z,97928.59
2018-08-19T06:25:49.565Z,97927.19
2018-08-19T06:28:19.309Z,97923.95
2018-08-19T06:30:49.137Z,97929.50
2018-08-19T06:33:20.998Z,97932.81
2018-08-19T06:38:33.518Z,97927.07
2018-08-19T06:41:03.778Z,97928.42
2018-08-19T06:43:34.099Z,97928.85
2018-08-19T06:46:04.946Z,97928.37
2018-08-19T06:48:35.732Z,97928.22
2018-08-19T06:51:08.512Z,97931.36
2018-08-19T06:53:38.807Z,97933.23
2018-08-19T06:56:09.746Z,97937.37
2018-08-19T06:58:40.425Z,97934.93
2018-08-19T07:01:11.904Z,97937.80
2018-08-19T07:03:46.791Z,97939.30
2018-08-19T07:06:18.779Z,97946.91
2018-08-19T07:08:49.178Z,97937.23
2018-08-19T07:11:19.082Z,97944.16
2018-08-19T07:13:51.045Z,97944.77
2018-08-19T07:16:22.234Z,97945.32
2018-08-19T07:18:52.217Z,97944.48
2018-08-19T07:21:24.524Z,97941.05
2018-08-19T07:23:56.175Z,97939.72
2018-08-19T07:26:27.098Z,97932.83
2018-08-19T07:28:57.479Z,97938.64
2018-08-19T07:31:29.220Z,97938.72
2018-08-19T07:34:03.499Z,97938.33
2018-08-19T07:36:36.918Z,97945.47
2018-08-19T07:39:08.420Z,97939.12
2018-08-19T07:41:39.080Z,97945.03
2018-08-19T07:44:09.160Z,97942.02
2018-08-19T07:46:50.473Z,97944.17
2018-08-19T07:49:23.219Z,97947.19
2018-08-19T07:51:53.840Z,97939.03
2018-08-19T07:54:23.757Z,97944.88
2018-08-19T07:56:54.538Z,97943.84
2018-08-19T07:59:24.887Z,97937.41
2018-08-19T08:01:55.672Z,97940.41
2018-08-19T08:17:24.628Z,97934.66
2018-08-19T08:20:08.719Z,97945.18
2018-08-19T08:22:40.788Z,97943.41
2018-08-19T08:25:14.580Z,97949.59
2018-08-19T08:27:45.778Z,97941.61
2018-08-19T08:30:17.917Z,97946.31
2018-08-19T08:32:51.236Z,97942.84
2018-08-19T08:35:23.719Z,97943.80
2018-08-19T08:37:55.513Z,97941.72
2018-08-19T08:40:27.326Z,97946.06
2018-08-19T08:42:59.541Z,97945.28
2018-08-19T08:45:35.279Z,97941.93
2018-08-19T08:48:09.958Z,97936.20
2018-08-19T08:50:42.580Z,97940.97
2018-08-19T08:53:14.717Z,97939.36
2018-08-19T08:58:40.569Z,97939.84
2018-08-19T09:01:14.746Z,97926.12
2018-08-19T09:03:54.866Z,97926.45
2018-08-19T09:06:31.044Z,97928.92
2018-08-19T09:09:03.467Z,97913.81
2018-08-19T09:11:33.339Z,97916.08
2018-08-19T09:14:03.300Z,97915.03
2018-08-19T09:16:37.568Z,97919.86
2018-08-19T09:19:08.919Z,97920.33
2018-08-19T09:21:39.540Z,97920.80
2018-08-19T09:24:09.850Z,97919.66
2018-08-19T09:26:39.823Z,97918.82
2018-08-19T09:29:09.460Z,97918.44
2018-08-19T09:31:39.339Z,97912.95
2018-08-19T09:34:09.940Z,97914.92
2018-08-19T09:36:39.800Z,97912.39
2018-08-19T09:39:11.580Z,97912.30
2018-08-19T09:41:41.803Z,97905.64
2018-08-19T09:44:11.640Z,97907.58
2018-08-19T09:46:42.362Z,97901.98
2018-08-19T09:49:14.407Z,97896.48
2018-08-19T09:51:45.907Z,97893.38
2018-08-19T09:54:20.890Z,97892.27
2018-08-19T09:56:51.386Z,97894.00
2018-08-19T09:59:21.619Z,97891.34
2018-08-19T10:01:52.049Z,97894.82
2018-08-19T10:04:26.389Z,97894.37
2018-08-19T10:07:07.624Z,97889.53
2018-08-19T10:09:38.679Z,97885.13
2018-08-19T10:12:10.985Z,97884.27
2018-08-19T10:14:41.498Z,97879.52
2018-08-19T10:17:17.518Z,97877.66
2018-08-19T10:19:50.779Z,97876.86
2018-08-19T10:22:44.068Z,97873.16
2018-08-19T10:25:17.119Z,97868.13
2018-08-19T10:27:49.948Z,97868.27
2018-08-19T10:30:20.618Z,97870.66
2018-08-19T10:32:59.137Z,97863.33
2018-08-19T10:35:30.599Z,97864.52
2018-08-19T10:38:01.838Z,97860.84
2018-08-19T10:40:35.078Z,97856.02
2018-08-19T10:43:11.419Z,97860.83
2018-08-19T10:45:46.345Z,97857.92
2018-08-19T10:48:16.698Z,97851.27
2018-08-19T10:50:46.507Z,97850.86
2018-08-19T10:53:21.211Z,97846.91
2018-08-19T10:55:50.979Z,97843.53
2018-08-19T10:58:21.030Z,97849.67
2018-08-19T11:00:52.698Z,97847.35
2018-08-19T11:03:22.540Z,97846.72
2018-08-19T11:05:54.585Z,97838.97
2018-08-19T11:08:24.481Z,97841.38
2018-08-19T11:10:54.040Z,97833.23
2018-08-19T11:13:47.985Z,97828.88
2018-08-19T11:16:34.269Z,97831.68
2018-08-19T11:19:10.148Z,97832.69
2018-08-19T11:21:51.046Z,97831.06
2018-08-19T11:24:39.090Z,97830.39
2018-08-19T11:27:10.717Z,97824.61
2018-08-19T11:29:49.101Z,97822.41
2018-08-19T11:32:38.100Z,97827.84
2018-08-19T11:35:36.251Z,97826.73
2018-08-19T11:38:11.529Z,97828.95
2018-08-19T11:40:53.029Z,97830.52
2018-08-19T11:43:43.269Z,97824.02
2018-08-19T11:46:25.145Z,97819.70
2018-08-19T11:49:01.405Z,97815.30
2018-08-19T11:54:29.354Z,97812.48
2018-08-19T11:57:05.013Z,97813.02
2018-08-19T11:59:42.365Z,97802.14
2018-08-19T12:02:24.809Z,97798.53
2018-08-19T12:04:54.555Z,97791.47
2018-08-19T12:07:24.657Z,97796.91
2018-08-19T12:09:59.872Z,97792.58
2018-08-19T12:13:00.445Z,97784.73
2018-08-19T12:15:30.660Z,97783.37
2018-08-19T12:18:00.596Z,97785.47
2018-08-19T12:20:34.368Z,97776.92
2018-08-19T12:23:05.686Z,97778.14
2018-08-19T12:25:36.065Z,97775.55
2018-08-19T12:28:06.349Z,97773.32
2018-08-19T12:30:36.591Z,97775.92
2018-08-19T12:33:20.684Z,97773.04
2018-08-19T12:35:52.115Z,97763.65
2018-08-19T12:38:22.112Z,97766.69
2018-08-19T12:40:52.698Z,97769.22
2018-08-19T12:43:22.688Z,97762.80
2018-08-19T12:45:52.611Z,97759.67
2018-08-19T12:48:22.609Z,97763.59
2018-08-19T12:50:57.147Z,97764.12
2018-08-19T12:53:27.292Z,97756.39
2018-08-19T12:56:00.307Z,97748.97
2018-08-19T12:58:38.908Z,97748.36
2018-08-19T13:01:09.567Z,97744.09
2018-08-19T13:03:39.407Z,97737.56
2018-08-19T13:06:09.637Z,97735.51
2018-08-19T13:08:39.488Z,97726.34
2018-08-19T13:11:09.680Z,97735.94
2018-08-19T13:13:39.888Z,97726.19
2018-08-19T13:18:47.131Z,97727.99
2018-08-19T13:21:19.322Z,97720.56
2018-08-19T13:23:50.128Z,97722.28
2018-08-19T13:26:20.367Z,97709.09
2018-08-19T13:28:54.065Z,97712.16
2018-08-19T13:31:28.501Z,97712.84
2018-08-19T13:34:01.648Z,97716.52
2018-08-19T13:36:43.506Z,97708.91
2018-08-19T13:39:13.725Z,97711.03
2018-08-19T13:41:43.964Z,97707.80
2018-08-19T13:44:14.719Z,97711.05
2018-08-19T13:46:46.186Z,97707.61
2018-08-19T13:49:19.464Z,97698.80
2018-08-19T13:51:50.614Z,97703.56
2018-08-19T13:54:21.146Z,97696.86
2018-08-19T13:56:50.996Z,97687.20
2018-08-19T13:59:21.815Z,97691.55
2018-08-19T14:01:54.622Z,97694.83
2018-08-19T14:04:24.866Z,97682.29
2018-08-19T14:06:55.150Z,97677.49
2018-08-19T14:09:25.481Z,97670.42
2018-08-19T14:11:55.878Z,97672.66
2018-08-19T14:14:26.247Z,97669.83
2018-08-19T14:16:56.538Z,97666.45
2018-08-19T14:19:32.938Z,97667.04
2018-08-19T14:22:02.976Z,97663.39
2018-08-19T14:24:33.384Z,97666.90
2018-08-19T14:27:03.038Z,97658.72
2018-08-19T14:29:38.832Z,97657.20
2018-08-19T14:32:15.533Z,97652.88
2018-08-19T14:34:46.221Z,97653.59
2018-08-19T14:37:41.748Z,97651.98
2018-08-19T14:43:13.705Z,97655.91
2018-08-19T14:45:43.527Z,97662.91
2018-08-19T14:48:14.066Z,97661.19
2018-08-19T14:50:47.867Z,97664.17
2018-08-19T14:53:18.668Z,97663.46
2018-08-19T14:55:49.516Z,97656.71
2018-08-19T14:58:20.448Z,97661.09
2018-08-19T15:00:50.817Z,97657.05
2018-08-19T15:03:21.727Z,97662.52
2018-08-19T15:06:07.948Z,97660.93
2018-08-19T15:08:38.311Z,97666.69
2018-08-19T15:11:08.508Z,97660.63
2018-08-19T15:13:38.407Z,97665.58
2018-08-19T15:16:08.708Z,97664.01
2018-08-19T15:18:39.307Z,97668.62
2018-08-19T15:21:09.469Z,97670.41
2018-08-19T15:23:41.036Z,97666.13
2018-08-19T15:26:11.629Z,97661.53
2018-08-19T15:28:42.317Z,97661.95
2018-08-19T15:31:17.138Z,97662.86
2018-08-19T15:33:53.655Z,97655.57
2018-08-19T15:36:23.814Z,97657.11
2018-08-19T15:38:54.358Z,97646.25
2018-08-19T15:41:24.890Z,97651.67
2018-08-19T15:43:56.254Z,97649.14
2018-08-19T15:46:26.409Z,97645.42
2018-08-19T15:49:11.449Z,97647.48
2018-08-19T15:51:41.656Z,97643.16
2018-08-19T15:54:12.289Z,97642.91
2018-08-19T15:56:49.068Z,97643.37
2018-08-19T15:59:21.038Z,97637.57
2018-08-19T16:01:51.448Z,97633.50
2018-08-19T16:04:23.269Z,97634.05
2018-08-19T16:06:54.288Z,97637.02
2018-08-19T16:09:25.836Z,97633.21
2018-08-19T16:11:55.928Z,97630.36
2018-08-19T16:14:29.869Z,97628.34
2018-08-19T16:17:00.890Z,97629.58
2018-08-19T16:19:30.976Z,97620.43
2018-08-19T16:22:01.389Z,97622.84
2018-08-19T16:24:31.355Z,97625.48
2018-08-19T16:27:01.055Z,97617.56
2018-08-19T16:29:30.968Z,97618.74
2018-08-19T16:32:00.698Z,97621.31
2018-08-19T16:34:30.509Z,97617.97
2018-08-19T16:37:00.156Z,97622.19
2018-08-19T16:39:30.049Z,97620.39
2018-08-19T16:41:59.795Z,97621.86
2018-08-19T16:44:29.508Z,97616.47
2018-08-19T16:46:59.287Z,97613.28
2018-08-19T16:49:29.265Z,97615.41
2018-08-19T16:51:58.938Z,97605.79
2018-08-19T16:54:28.688Z,97614.20
2018-08-19T16:56:58.380Z,97612.95
2018-08-19T16:59:28.034Z,97626.05
2018-08-19T17:01:57.592Z,97627.52
2018-08-19T17:04:27.254Z,97622.06
2018-08-19T17:06:56.827Z,97621.59
2018-08-19T17:09:26.654Z,97623.30
2018-08-19T17:11:56.494Z,97624.39
2018-08-19T17:14:26.400Z,97623.94
2018-08-19T17:16:56.320Z,97621.58
2018-08-19T17:19:26.780Z,97625.39
2018-08-19T17:21:57.358Z,97622.98
2018-08-19T17:24:27.943Z,97623.03
2018-08-19T17:27:04.378Z,97625.77
2018-08-19T17:29:34.357Z,97631.73
2018-08-19T17:32:04.299Z,97630.17
2018-08-19T17:34:34.494Z,97637.98
2018-08-19T17:37:04.938Z,97639.89
2018-08-19T17:39:35.150Z,97647.52
2018-08-19T17:42:05.304Z,97646.56
2018-08-19T17:44:36.557Z,97647.23
2018-08-19T17:47:06.410Z,97650.89
2018-08-19T17:49:37.487Z,97650.57
2018-08-19T17:52:07.332Z,97649.70
2018-08-19T17:54:36.898Z,97655.43
2018-08-19T17:57:07.919Z,97650.58
2018-08-19T17:59:37.783Z,97654.69
2018-08-19T18:02:07.567Z,97654.30
2018-08-19T18:04:42.395Z,97649.88
2018-08-19T18:07:14.162Z,97662.16
2018-08-19T18:09:47.758Z,97664.38
2018-08-19T18:12:17.618Z,97663.43
2018-08-19T18:14:47.904Z,97664.24
2018-08-19T18:17:17.774Z,97666.06
2018-08-19T18:19:47.530Z,97667.13
2018-08-19T18:22:22.154Z,97665.97
2018-08-19T18:24:57.087Z,97667.78
2018-08-19T18:27:27.137Z,97669.63
2018-08-19T18:29:56.809Z,97677.72
2018-08-19T18:32:26.698Z,97684.75
2018-08-19T18:34:56.424Z,97691.30
2018-08-19T18:37:26.142Z,97689.72
2018-08-19T18:39:55.703Z,97692.08
2018-08-19T18:42:38.082Z,97698.98
2018-08-19T18:45:11.494Z,97702.95
2018-08-19T18:48:14.936Z,97711.75
2018-08-19T18:50:44.461Z,97707.81
2018-08-19T18:53:14.262Z,97702.81
2018-08-19T18:55:43.590Z,97717.88
2018-08-19T18:58:13.107Z,97715.08
2018-08-19T19:00:46.865Z,97711.96
2018-08-19T19:03:16.447Z,97719.19
2018-08-19T19:05:45.816Z,97715.53
2018-08-19T19:08:19.020Z,97717.72
2018-08-19T19:10:55.075Z,97712.58
2018-08-19T19:13:25.512Z,97719.23
2018-08-19T19:15:55.120Z,97721.17
2018-08-19T19:18:25.030Z,97722.99
2018-08-19T19:21:06.005Z,97719.35
2018-08-19T19:23:36.780Z,97728.28
2018-08-19T19:26:07.326Z,97733.64
2018-08-19T19:28:37.089Z,97730.31
2018-08-19T19:31:15.405Z,97731.41
2018-08-19T19:33:45.113Z,97735.88
2018-08-19T19:36:20.582Z,97735.30
2018-08-19T19:38:58.663Z,97731.56
2018-08-19T19:41:30.988Z,97728.44
2018-08-19T19:44:04.874Z,97726.75
2018-08-19T19:46:34.418Z,97730.02
2018-08-19T19:49:04.044Z,97732.66
2018-08-19T19:51:33.484Z,97737.20
2018-08-19T19:54:02.914Z,97738.98
2018-08-19T19:56:32.508Z,97739.43
2018-08-19T19:59:02.068Z,97735.41
2018-08-19T20:01:31.979Z,97735.53
2018-08-19T20:04:02.090Z,97739.30
2018-08-19T20:06:31.770Z,97743.67
2018-08-19T20:09:01.532Z,97752.09
2018-08-19T20:11:31.930Z,97749.97
2018-08-19T20:14:03.280Z,97750.20
2018-08-19T20:16:32.886Z,97748.36
2018-08-19T20:19:02.642Z,97750.61
2018-08-19T20:21:35.670Z,97749.84
2018-08-19T20:24:05.815Z,97749.66
2018-08-19T20:26:37.938Z,97751.63
2018-08-19T20:29:11.332Z,97751.83
2018-08-19T20:31:41.787Z,97749.86
2018-08-19T20:34:12.220Z,97753.08
2018-08-19T20:36:47.312Z,97755.46
2018-08-19T20:39:19.456Z,97753.51
2018-08-19T20:41:49.171Z,97755.16
2018-08-19T20:44:22.434Z,97756.27
2018-08-19T20:46:58.810Z,97761.29
2018-08-19T20:49:29.824Z,97760.05
2018-08-19T20:52:01.505Z,97750.25
2018-08-19T20:54:33.593Z,97758.34
2018-08-19T20:57:05.302Z,97755.95
2018-08-19T20:59:36.488Z,97755.77
2018-08-19T21:02:08.985Z,97760.97
2018-08-19T21:04:38.805Z,97763.22
2018-08-19T21:07:09.759Z,97762.16
2018-08-19T21:09:41.885Z,97765.66
2018-08-19T21:12:12.822Z,97763.03
2018-08-19T21:14:43.731Z,97769.25
2018-08-19T21:17:16.521Z,97764.27
2018-08-19T21:19:48.680Z,97767.24
2018-08-19T21:22:20.100Z,97764.15
2018-08-19T21:24:51.375Z,97766.54
2018-08-19T21:27:22.699Z,97770.00
2018-08-19T21:29:53.556Z,97771.10
2018-08-19T21:32:24.861Z,97772.30
2018-08-19T21:34:56.249Z,97768.75
2018-08-19T21:37:35.355Z,97772.83
2018-08-19T21:40:06.083Z,97772.00
2018-08-19T21:42:46.074Z,97764.67
2018-08-19T21:45:15.589Z,97767.89
2018-08-19T21:47:45.395Z,97762.25
2018-08-19T21:50:14.828Z,97768.27
2018-08-19T21:53:01.861Z,97762.95
2018-08-19T21:55:33.689Z,97761.72
2018-08-19T21:58:03.795Z,97765.67
2018-08-19T22:00:36.263Z,97759.91
2018-08-19T22:03:11.068Z,97757.03
2018-08-19T22:05:40.750Z,97761.35
2018-08-19T22:08:10.347Z,97755.20
2018-08-19T22:10:40.021Z,97750.50
2018-08-19T22:13:09.556Z,97744.98
2018-08-19T22:15:40.410Z,97746.14
2018-08-19T22:18:12.143Z,97745.83
2018-08-19T22:20:47.464Z,97751.75
2018-08-19T22:23:17.234Z,97751.58
2018-08-19T22:25:46.831Z,97747.41
2018-08-19T22:28:16.427Z,97747.66
2018-08-19T22:30:46.062Z,97750.30
2018-08-19T22:33:15.794Z,97750.30
2018-08-19T22:35:45.381Z,97744.70
2018-08-19T22:38:20.245Z,97747.80
2018-08-19T22:40:50.351Z,97743.38
2018-08-19T22:43:21.436Z,97736.47
2018-08-19T22:45:50.931Z,97733.84
2018-08-19T22:48:36.344Z,97734.69
2018-08-19T22:51:06.657Z,97732.17
2018-08-19T22:53:36.304Z,97726.56
2018-08-19T22:56:06.100Z,97727.02
2018-08-19T22:58:36.557Z,97725.24
2018-08-19T23:01:06.535Z,97718.91
2018-08-19T23:03:36.408Z,97722.08
2018-08-19T23:06:06.159Z,97722.09
2018-08-19T23:08:35.939Z,97728.80
2018-08-19T23:11:05.955Z,97724.95
2018-08-19T23:13:46.079Z,97730.33
2018-08-19T23:16:15.628Z,97730.21
2018-08-19T23:18:45.389Z,97729.02
2018-08-19T23:21:14.997Z,97728.79
2018-08-19T23:23:44.592Z,97724.47
2018-08-19T23:26:14.043Z,97724.48
2018-08-19T23:28:43.644Z,97724.81
2018-08-19T23:31:13.203Z,97722.41
2018-08-19T23:33:42.824Z,97722.16
2018-08-19T23:36:12.263Z,97714.91
2018-08-19T23:38:41.868Z,97722.06
2018-08-19T23:41:11.350Z,97720.98
2018-08-19T23:43:40.938Z,97717.98
2018-08-19T23:46:10.397Z,97714.27
2018-08-19T23:48:40.096Z,97716.79
2018-08-19T23:51:12.716Z,97716.79
2018-08-19T23:53:42.269Z,97717.39
2018-08-19T23:56:11.743Z,97714.63
2018-08-19T23:58:44.003Z,97715.19
